ホノルル の空港の天気 - METARとTAF

ホノルル国際空港 ( PHNL / HNL ) - アメリカ ハワイ州ホノルル
飛行場実況気象(Metar)
観測時間01/21 07:53 HST (01/21 17:53 UTC)
風向・風速東北東 4m/s
視程10km以上
天気現象
少しの雲 雲底高度 910m
少しの雲 雲底高度 1680m
全天の8割程度の雲 雲底高度 7620m
気温24.4℃
湿度71%
気圧1016.5hPa
METARPHNL 211753Z 06007KT 10SM FEW030 FEW055 BKN250 24/19 A3002 RMK AO2 SLP165 VCSH N-E SHRA DSNT NW 60000 T02440189 10244 20228 53017 $
過去の天気等 Google飛行場航空写真 Wunderground天気予報

過去48時間のMETAR

飛行場予報(TAF)
発表時間: 1/21 07:36 HST (1/21 17:36 UTC)
予報対象時間: 21日8時 HST ~ 22日14時 HST
風向・風速東北東 3m/s
視程10km以上
天気現象周辺でしゅう雨
少しの雲 雲底高度 760m
全天の4割程度の雲 雲底高度 1,070m
全天の8割程度の雲 雲底高度 1,830m
21日10時 HST から
風向・風速東北東 6m/s
視程10km以上
天気現象周辺でしゅう雨
全天の4割程度の雲 雲底高度 760m
全天の8割程度の雲 雲底高度 1,370m
21日20時 HST から
風向・風速東北東 4m/s
視程10km以上
少しの雲 雲底高度 760m
全天の4割程度の雲 雲底高度 1,370m
PHNL 211736Z 2118/2224 07006KT P6SM VCSH FEW025 SCT035 BKN060
FM212000 07011KT P6SM VCSH SCT025 BKN045
FM220600 06008KT P6SM FEW025 SCT045